Time;durP1;ratioP1;P1;durP2;ratioP2;P2;SDS_P1;SDS_P2;PMS_P1;PMS_P2;Temp;Humidity;BMP_temperature;BMP_pressure;BME280_temperature;BME280_humidity;BME280_pressure;Samples;Min_cycle;Max_cycle;Signal;HPM_P1;HPM_P2
2021/01/17 00:00:13;;;;;;;16.80;12.30;;;4.80;92.50;;;;;;5051605;28;20180;-73
2021/01/17 00:02:39;;;;;;;16.73;11.73;;;4.70;93.00;;;;;;5049803;28;20226;-73
2021/01/17 00:05:12;;;;;;;15.45;12.43;;;4.70;93.40;;;;;;5051696;28;20174;-72
2021/01/17 00:07:39;;;;;;;16.05;12.52;;;4.70;93.50;;;;;;5050694;28;20226;-73
2021/01/17 00:10:07;;;;;;;16.50;12.30;;;4.70;93.40;;;;;;5051775;28;20194;-72
2021/01/17 00:12:33;;;;;;;19.17;13.43;;;4.70;93.60;;;;;;5050526;28;20280;-73
2021/01/17 00:14:59;;;;;;;18.07;14.00;;;4.70;94.10;;;;;;5050726;28;20366;-71
2021/01/17 00:17:26;;;;;;;16.10;12.20;;;4.70;93.90;;;;;;5031080;28;20428;-71
2021/01/17 00:19:52;;;;;;;14.27;12.23;;;4.60;94.00;;;;;;5030999;28;20461;-70
2021/01/17 00:22:20;;;;;;;19.20;13.00;;;4.60;94.40;;;;;;5030488;28;20202;-70
2021/01/17 00:24:46;;;;;;;18.55;13.10;;;4.50;94.10;;;;;;5030850;28;20189;-71
2021/01/17 00:27:13;;;;;;;17.03;12.97;;;4.50;93.80;;;;;;5031471;28;20178;-70
2021/01/17 00:29:40;;;;;;;16.70;13.10;;;4.50;93.90;;;;;;5040495;28;20422;-72
2021/01/17 00:32:12;;;;;;;17.50;13.75;;;4.50;93.90;;;;;;5055384;28;20185;-70
2021/01/17 00:34:39;;;;;;;16.23;12.70;;;4.50;93.90;;;;;;5054857;28;20177;-72
2021/01/17 00:37:05;;;;;;;16.33;13.25;;;4.50;94.00;;;;;;5055081;28;20181;-71
2021/01/17 00:39:31;;;;;;;19.73;13.68;;;4.50;94.10;;;;;;5053784;28;20177;-71
2021/01/17 00:41:57;;;;;;;19.17;13.40;;;4.50;94.10;;;;;;5054498;28;20220;-70
2021/01/17 00:44:23;;;;;;;19.77;13.48;;;4.40;93.80;;;;;;5054751;28;20473;-71
2021/01/17 00:46:49;;;;;;;17.27;13.60;;;4.30;93.50;;;;;;5054478;28;20263;-71
2021/01/17 00:49:15;;;;;;;16.83;13.03;;;4.20;93.60;;;;;;5055126;28;20182;-70
2021/01/17 00:51:44;;;;;;;17.33;13.40;;;4.20;93.70;;;;;;5053959;28;20427;-71
2021/01/17 00:54:10;;;;;;;18.77;14.02;;;4.20;93.90;;;;;;5054547;28;20252;-70
2021/01/17 00:56:37;;;;;;;17.88;13.20;;;4.30;93.80;;;;;;5053831;28;20212;-71
2021/01/17 00:59:08;;;;;;;19.33;12.73;;;4.30;93.60;;;;;;5053989;28;20173;-71
2021/01/17 01:01:37;;;;;;;17.17;13.00;;;4.40;93.50;;;;;;5054585;28;20653;-70
2021/01/17 01:04:03;;;;;;;17.33;13.13;;;4.40;93.40;;;;;;5053769;28;20210;-70
2021/01/17 01:06:29;;;;;;;16.50;11.73;;;4.40;93.20;;;;;;5054696;28;20672;-70
2021/01/17 01:08:54;;;;;;;19.80;12.87;;;4.30;92.90;;;;;;5053412;28;20427;-70
2021/01/17 01:11:21;;;;;;;16.83;12.80;;;4.30;93.20;;;;;;5054499;28;20254;-70
2021/01/17 01:13:47;;;;;;;18.17;12.95;;;4.40;93.30;;;;;;5053769;28;20188;-71
2021/01/17 01:16:16;;;;;;;18.20;13.20;;;4.40;93.20;;;;;;5054050;28;20177;-70
2021/01/17 01:18:43;;;;;;;18.88;13.02;;;4.40;93.20;;;;;;5053484;28;20230;-72
2021/01/17 01:21:10;;;;;;;18.27;13.27;;;4.40;93.10;;;;;;5054275;28;20185;-70
2021/01/17 01:23:36;;;;;;;16.95;13.57;;;4.50;93.10;;;;;;5054035;28;20257;-70
2021/01/17 01:26:02;;;;;;;16.80;13.23;;;4.50;93.20;;;;;;5053716;28;20657;-71
2021/01/17 01:28:28;;;;;;;20.73;14.03;;;4.50;93.20;;;;;;5052716;28;20407;-71
2021/01/17 01:30:55;;;;;;;16.13;13.00;;;4.50;93.20;;;;;;5053491;28;20176;-70
2021/01/17 01:33:21;;;;;;;16.42;12.60;;;4.50;93.40;;;;;;5052797;28;20822;-70
2021/01/17 01:35:47;;;;;;;18.10;13.02;;;4.60;93.40;;;;;;5053340;28;20232;-70
2021/01/17 01:38:14;;;;;;;19.10;14.10;;;4.50;93.40;;;;;;5054346;28;20185;-73
2021/01/17 01:40:40;;;;;;;16.95;13.25;;;4.60;93.40;;;;;;5053161;28;20506;-74
2021/01/17 01:43:06;;;;;;;19.05;13.95;;;4.60;93.50;;;;;;5053791;28;20239;-73
2021/01/17 01:45:31;;;;;;;23.23;15.00;;;4.60;93.50;;;;;;5054234;28;20252;-73
2021/01/17 01:47:57;;;;;;;20.70;13.80;;;4.60;93.60;;;;;;5053013;28;20923;-74
2021/01/17 01:50:23;;;;;;;18.87;13.63;;;4.60;93.60;;;;;;5054020;28;20178;-73
2021/01/17 01:52:50;;;;;;;17.90;13.83;;;4.60;93.50;;;;;;5053201;28;20404;-73
2021/01/17 01:55:16;;;;;;;16.05;12.65;;;4.60;93.50;;;;;;5053920;28;20412;-74
2021/01/17 01:57:42;;;;;;;17.80;12.37;;;4.60;93.50;;;;;;5052059;28;20177;-75
2021/01/17 02:00:09;;;;;;;18.05;13.20;;;4.70;93.50;;;;;;5053448;28;20181;-74
2021/01/17 02:02:45;;;;;;;17.75;12.85;;;4.70;93.60;;;;;;5053566;28;20209;-74
2021/01/17 02:05:12;;;;;;;18.70;13.90;;;4.70;93.50;;;;;;5054055;28;20184;-74
2021/01/17 02:08:15;;;;;;;18.10;13.55;;;4.70;93.40;;;;;;5053898;28;20184;-75
2021/01/17 02:10:43;;;;;;;18.17;13.65;;;4.60;93.30;;;;;;5052604;28;20193;-75
2021/01/17 02:13:24;;;;;;;18.73;13.75;;;4.60;93.30;;;;;;5053431;28;20189;-74
2021/01/17 02:15:53;;;;;;;17.90;13.48;;;4.50;93.20;;;;;;5052553;28;20172;-74
2021/01/17 02:18:23;;;;;;;18.85;13.80;;;4.50;93.20;;;;;;5053315;28;20672;-74
2021/01/17 02:20:52;;;;;;;18.67;13.57;;;4.40;93.30;;;;;;5051614;28;20231;-74
2021/01/17 02:23:30;;;;;;;18.48;13.88;;;4.40;93.60;;;;;;5054076;28;20613;-74
2021/01/17 02:25:56;;;;;;;18.85;13.05;;;4.40;93.70;;;;;;5054190;28;20227;-74
2021/01/17 02:28:23;;;;;;;19.88;14.10;;;4.40;93.70;;;;;;5053560;28;20267;-74
2021/01/17 02:30:52;;;;;;;16.98;13.07;;;4.50;93.80;;;;;;5052348;28;20216;-75
2021/01/17 02:33:30;;;;;;;18.30;15.30;;;4.50;93.80;;;;;;5092641;28;20516;-74
2021/01/17 02:36:15;;;;;;;19.55;14.68;;;4.50;94.10;;;;;;5088266;28;20168;-74
2021/01/17 02:39:05;;;;;;;18.58;14.07;;;4.50;94.30;;;;;;5032978;28;20166;-74
2021/01/17 02:41:49;;;;;;;22.30;14.90;;;4.50;94.40;;;;;;5032229;28;20579;-74
2021/01/17 02:44:16;;;;;;;20.60;13.27;;;4.50;94.60;;;;;;5033242;28;20266;-74
2021/01/17 02:46:42;;;;;;;19.90;14.48;;;4.50;94.50;;;;;;5032882;28;20189;-74
2021/01/17 02:49:08;;;;;;;22.77;14.75;;;4.50;94.30;;;;;;5064628;28;20269;-74
2021/01/17 02:51:33;;;;;;;17.43;13.40;;;4.50;94.50;;;;;;5037685;28;20725;-74
2021/01/17 02:54:20;;;;;;;19.83;15.67;;;4.50;94.40;;;;;;5052076;28;20189;-74
2021/01/17 02:56:55;;;;;;;19.02;14.25;;;4.40;93.90;;;;;;5052158;28;20169;-75
2021/01/17 02:59:24;;;;;;;21.58;15.10;;;4.40;93.90;;;;;;5053003;28;20169;-74
2021/01/17 03:01:54;;;;;;;20.73;14.80;;;4.40;93.90;;;;;;5051965;28;20209;-74
2021/01/17 03:04:39;;;;;;;21.00;14.23;;;4.40;93.90;;;;;;5051644;28;20169;-74
2021/01/17 03:07:08;;;;;;;20.90;14.48;;;4.20;93.90;;;;;;5051097;28;20165;-74
2021/01/17 03:09:35;;;;;;;20.42;14.57;;;4.30;94.30;;;;;;5052476;28;20177;-74
2021/01/17 03:12:04;;;;;;;20.70;14.60;;;4.30;94.50;;;;;;5030352;28;20252;-74
2021/01/17 03:14:34;;;;;;;21.38;15.30;;;4.40;94.40;;;;;;5032550;28;20189;-74
2021/01/17 03:17:02;;;;;;;21.50;15.13;;;4.40;94.10;;;;;;5031788;28;20180;-75
2021/01/17 03:19:28;;;;;;;21.38;15.43;;;4.40;94.00;;;;;;5032503;28;20186;-74
2021/01/17 03:21:53;;;;;;;19.00;14.30;;;4.40;94.00;;;;;;5031354;28;20591;-74
2021/01/17 03:24:19;;;;;;;19.30;13.93;;;4.50;94.00;;;;;;5031265;28;20185;-74
2021/01/17 03:26:45;;;;;;;20.60;14.97;;;4.50;93.90;;;;;;5032406;28;20181;-74
2021/01/17 03:29:10;;;;;;;18.47;14.00;;;4.50;93.90;;;;;;5031847;28;20178;-74
2021/01/17 03:31:36;;;;;;;19.20;13.70;;;4.50;94.00;;;;;;5036808;28;20568;-74
2021/01/17 03:34:02;;;;;;;19.10;14.30;;;4.50;94.00;;;;;;5051471;28;20664;-74
2021/01/17 03:36:28;;;;;;;21.50;15.33;;;4.50;94.10;;;;;;5052177;28;20183;-74
2021/01/17 03:38:53;;;;;;;16.93;13.57;;;4.50;94.20;;;;;;5050371;28;20539;-74
2021/01/17 03:41:19;;;;;;;18.40;14.87;;;4.50;94.30;;;;;;5052298;28;20173;-74
2021/01/17 03:43:45;;;;;;;19.60;14.30;;;4.50;94.50;;;;;;5052040;28;20217;-74
2021/01/17 03:46:11;;;;;;;21.20;15.07;;;4.40;94.40;;;;;;5051562;28;20219;-74
2021/01/17 03:48:36;;;;;;;22.47;16.53;;;4.40;94.40;;;;;;5034391;28;20231;-74
2021/01/17 03:51:02;;;;;;;21.00;14.50;;;4.50;94.40;;;;;;5051128;28;20618;-74
2021/01/17 03:53:28;;;;;;;20.33;15.23;;;4.40;94.20;;;;;;5052221;28;20326;-74
2021/01/17 03:55:54;;;;;;;20.03;15.10;;;4.50;94.20;;;;;;5051252;28;20663;-74
2021/01/17 03:58:20;;;;;;;18.90;13.80;;;4.50;93.90;;;;;;5084297;28;20173;-74
2021/01/17 04:00:45;;;;;;;22.30;15.20;;;4.60;93.90;;;;;;5052336;28;20187;-74
2021/01/17 04:03:11;;;;;;;22.33;15.33;;;4.60;93.90;;;;;;5083378;28;20266;-74
2021/01/17 04:05:37;;;;;;;20.13;15.80;;;4.60;93.90;;;;;;5087790;28;20181;-74
2021/01/17 04:08:02;;;;;;;19.77;14.93;;;4.60;93.60;;;;;;5055314;28;20575;-74
2021/01/17 04:10:28;;;;;;;22.00;15.17;;;4.60;93.80;;;;;;5088534;28;20177;-74
2021/01/17 04:12:54;;;;;;;19.37;13.87;;;4.50;93.80;;;;;;5054699;28;20584;-75
2021/01/17 04:15:19;;;;;;;22.20;16.70;;;4.50;93.80;;;;;;5054915;28;20192;-74
2021/01/17 04:17:47;;;;;;;21.03;15.43;;;4.50;93.80;;;;;;5055705;28;20644;-74
2021/01/17 04:20:13;;;;;;;21.00;14.30;;;4.60;93.70;;;;;;5055013;28;20228;-74
2021/01/17 04:22:39;;;;;;;18.63;15.60;;;4.60;93.80;;;;;;5054410;28;20236;-74
2021/01/17 04:25:05;;;;;;;20.93;15.67;;;4.50;93.90;;;;;;5054782;28;20267;-74
2021/01/17 04:27:31;;;;;;;20.73;14.63;;;4.50;94.20;;;;;;5055534;28;20303;-74
2021/01/17 04:29:57;;;;;;;23.70;14.90;;;4.50;94.40;;;;;;5054854;28;20707;-74
2021/01/17 04:32:23;;;;;;;20.07;14.70;;;4.50;94.60;;;;;;5055511;28;20568;-74
2021/01/17 04:34:50;;;;;;;21.30;16.20;;;4.50;94.60;;;;;;5055438;28;20170;-75
2021/01/17 04:37:23;;;;;;;22.90;16.55;;;4.60;94.70;;;;;;5055164;28;20208;-74
2021/01/17 04:39:50;;;;;;;22.05;14.88;;;4.60;94.70;;;;;;5055459;28;20687;-75
2021/01/17 04:42:18;;;;;;;23.17;15.77;;;4.60;94.70;;;;;;5055007;28;20252;-74
2021/01/17 04:44:53;;;;;;;20.33;14.80;;;4.50;94.80;;;;;;5053894;28;20708;-74
2021/01/17 04:47:21;;;;;;;24.20;15.80;;;4.50;94.80;;;;;;5055418;28;20624;-74
2021/01/17 04:49:58;;;;;;;22.65;16.23;;;4.50;94.90;;;;;;5055360;28;20190;-74
2021/01/17 04:52:28;;;;;;;21.92;15.77;;;4.60;95.10;;;;;;5055080;28;20177;-74
2021/01/17 04:54:54;;;;;;;23.75;15.10;;;4.50;95.00;;;;;;5054837;28;20193;-75
2021/01/17 04:57:37;;;;;;;21.52;14.77;;;4.50;95.00;;;;;;5055159;28;20194;-74
2021/01/17 05:00:10;;;;;;;24.35;15.02;;;4.50;94.50;;;;;;5054374;28;20177;-74
2021/01/17 05:03:11;;;;;;;24.05;15.20;;;4.50;94.20;;;;;;5054822;28;20200;-74
2021/01/17 05:06:04;;;;;;;16.27;13.05;;;4.50;93.90;;;;;;5082425;28;20256;-74
2021/01/17 05:08:31;;;;;;;20.17;14.40;;;4.40;93.40;;;;;;5055040;28;20561;-74
2021/01/17 05:11:07;;;;;;;21.73;15.18;;;4.40;93.70;;;;;;5053919;28;20184;-75
2021/01/17 05:13:38;;;;;;;22.55;15.23;;;4.50;93.60;;;;;;5054985;28;20628;-74
2021/01/17 05:16:08;;;;;;;22.55;15.43;;;4.40;93.40;;;;;;5052723;28;20154;-74
2021/01/17 05:18:35;;;;;;;20.92;14.73;;;4.40;93.40;;;;;;5054799;28;20639;-75
2021/01/17 05:21:03;;;;;;;19.13;15.52;;;4.50;93.40;;;;;;5019632;28;20181;-75
2021/01/17 05:23:39;;;;;;;22.38;15.30;;;4.50;93.30;;;;;;5054685;28;20710;-74
2021/01/17 05:26:05;;;;;;;21.13;14.98;;;4.60;93.40;;;;;;5053848;28;20264;-74
2021/01/17 05:28:32;;;;;;;21.58;15.80;;;4.70;93.40;;;;;;5054528;28;20177;-75
2021/01/17 05:30:59;;;;;;;21.48;14.90;;;4.70;93.30;;;;;;5035798;28;20524;-74
2021/01/17 05:33:32;;;;;;;18.98;14.25;;;4.70;93.10;;;;;;5054573;28;20185;-74
2021/01/17 05:36:00;;;;;;;25.13;16.55;;;4.70;93.10;;;;;;5053353;28;20158;-75
2021/01/17 05:38:26;;;;;;;21.35;15.63;;;4.80;93.20;;;;;;5053052;28;20243;-74
2021/01/17 05:40:53;;;;;;;20.83;15.30;;;4.80;93.20;;;;;;5054117;28;20183;-74
2021/01/17 05:43:19;;;;;;;24.52;15.63;;;4.80;93.20;;;;;;5053569;28;20213;-74
2021/01/17 05:45:45;;;;;;;22.30;15.87;;;4.80;93.20;;;;;;5053872;28;20178;-74
2021/01/17 05:48:11;;;;;;;23.85;16.05;;;4.90;93.20;;;;;;5053724;28;20186;-74
2021/01/17 05:50:42;;;;;;;22.80;15.35;;;4.90;93.30;;;;;;5053560;28;20169;-71
2021/01/17 05:53:07;;;;;;;20.45;15.65;;;4.90;93.40;;;;;;5053392;28;20201;-74
2021/01/17 05:55:37;;;;;;;23.20;16.83;;;4.90;93.30;;;;;;5054054;28;20213;-75
2021/01/17 05:58:22;;;;;;;25.60;17.90;;;4.90;93.40;;;;;;5052854;28;20185;-74
2021/01/17 06:00:59;;;;;;;22.55;16.35;;;4.90;93.50;;;;;;5053356;28;20707;-75
2021/01/17 06:03:36;;;;;;;22.70;16.17;;;4.90;93.60;;;;;;5064363;28;20204;-75
2021/01/17 06:06:05;;;;;;;25.17;16.70;;;4.90;93.50;;;;;;5072974;28;20179;-75
2021/01/17 06:08:32;;;;;;;23.60;15.93;;;4.90;93.50;;;;;;5073910;28;20173;-74
2021/01/17 06:11:12;;;;;;;26.00;16.48;;;4.90;93.40;;;;;;5073251;28;20184;-75
2021/01/17 06:13:39;;;;;;;26.25;16.90;;;4.90;93.40;;;;;;5073930;28;20161;-75
2021/01/17 06:16:30;;;;;;;25.98;16.60;;;5.00;93.30;;;;;;5072754;28;20260;-75
2021/01/17 06:19:01;;;;;;;24.58;16.15;;;4.90;93.30;;;;;;5073321;28;20524;-76
2021/01/17 06:21:29;;;;;;;25.70;16.40;;;4.90;93.20;;;;;;5059521;28;20191;-74
2021/01/17 06:24:03;;;;;;;23.60;15.80;;;4.80;93.30;;;;;;5053156;28;20640;-75
2021/01/17 06:26:31;;;;;;;24.58;15.80;;;4.80;93.50;;;;;;5053542;28;20193;-74
2021/01/17 06:28:59;;;;;;;23.50;15.85;;;4.90;93.60;;;;;;5053042;28;20173;-75
2021/01/17 06:31:29;;;;;;;27.35;15.93;;;4.90;93.60;;;;;;5052849;28;20201;-74
2021/01/17 06:34:06;;;;;;;24.35;15.65;;;4.90;93.70;;;;;;5053360;28;20186;-74
2021/01/17 06:36:32;;;;;;;22.65;16.35;;;4.90;93.80;;;;;;5052924;28;20249;-74
2021/01/17 06:38:58;;;;;;;26.77;17.10;;;4.90;93.80;;;;;;5052804;28;20182;-76
2021/01/17 06:41:39;;;;;;;27.38;17.15;;;4.90;93.80;;;;;;5083356;28;20173;-75
2021/01/17 06:44:07;;;;;;;26.75;16.08;;;4.90;94.10;;;;;;5050951;28;20209;-75
2021/01/17 06:46:46;;;;;;;23.15;16.42;;;4.80;94.40;;;;;;5052629;28;20204;-74
2021/01/17 06:49:25;;;;;;;23.00;15.77;;;4.90;94.60;;;;;;5033547;28;20187;-75
2021/01/17 06:51:52;;;;;;;26.08;16.63;;;4.80;94.50;;;;;;5053269;28;20199;-74
2021/01/17 06:54:23;;;;;;;25.17;17.60;;;4.80;94.50;;;;;;5051227;28;20181;-75
2021/01/17 06:56:50;;;;;;;31.38;17.52;;;4.80;94.30;;;;;;5051445;28;20262;-74
2021/01/17 06:59:29;;;;;;;26.33;16.42;;;4.70;94.40;;;;;;5052092;28;20204;-74
2021/01/17 07:02:24;;;;;;;26.73;16.25;;;4.70;94.20;;;;;;5052422;28;20550;-74
2021/01/17 07:04:56;;;;;;;25.25;16.25;;;4.70;94.20;;;;;;5052184;28;20189;-74
2021/01/17 07:08:02;;;;;;;27.35;17.05;;;4.60;94.40;;;;;;5051932;28;20170;-75
2021/01/17 07:10:40;;;;;;;30.05;18.80;;;4.60;94.60;;;;;;5052690;28;20176;-74
2021/01/17 07:13:10;;;;;;;25.75;17.23;;;4.60;94.50;;;;;;5050268;28;20180;-75
2021/01/17 07:15:40;;;;;;;24.20;17.30;;;4.60;94.40;;;;;;5052689;28;20208;-74
2021/01/17 07:18:11;;;;;;;27.58;16.70;;;4.60;94.40;;;;;;5051856;28;20567;-73
2021/01/17 07:20:47;;;;;;;29.10;17.23;;;4.50;94.50;;;;;;5052447;28;20644;-74
2021/01/17 07:23:15;;;;;;;29.58;17.67;;;4.50;94.80;;;;;;5051605;28;20223;-74
2021/01/17 07:25:44;;;;;;;24.95;15.75;;;4.60;94.60;;;;;;5052204;28;20178;-74
2021/01/17 07:28:14;;;;;;;27.10;16.50;;;4.40;94.30;;;;;;5051121;28;20614;-74
2021/01/17 07:30:59;;;;;;;30.13;17.67;;;4.30;94.80;;;;;;5051395;28;20177;-76
2021/01/17 07:33:29;;;;;;;25.15;17.85;;;4.40;94.80;;;;;;5051615;28;20191;-75
2021/01/17 07:36:00;;;;;;;29.98;18.33;;;4.30;94.80;;;;;;5051252;28;20169;-75
2021/01/17 07:38:32;;;;;;;28.55;17.08;;;4.40;95.00;;;;;;5050109;28;20255;-75
2021/01/17 07:41:06;;;;;;;29.67;16.85;;;4.50;95.00;;;;;;5052189;28;20173;-75
2021/01/17 07:43:42;;;;;;;27.60;15.80;;;4.70;94.90;;;;;;5051575;28;20208;-75
2021/01/17 07:46:10;;;;;;;24.20;16.42;;;4.70;94.80;;;;;;5083812;28;20653;-75
2021/01/17 07:48:38;;;;;;;26.67;17.10;;;4.70;94.60;;;;;;5051398;28;20182;-75
2021/01/17 07:51:08;;;;;;;28.60;17.70;;;4.80;94.70;;;;;;5050945;28;20177;-76
2021/01/17 07:53:37;;;;;;;25.60;17.02;;;4.80;94.50;;;;;;5051462;28;20639;-75
2021/01/17 07:56:07;;;;;;;31.38;17.90;;;4.80;94.50;;;;;;5051116;28;20515;-77
2021/01/17 07:58:37;;;;;;;26.58;17.17;;;4.80;94.60;;;;;;5051489;28;20186;-75
2021/01/17 08:01:03;;;;;;;30.45;17.65;;;4.90;94.60;;;;;;5050564;28;20177;-76
2021/01/17 08:03:29;;;;;;;29.40;18.25;;;4.80;94.70;;;;;;5051484;28;20236;-75
2021/01/17 08:05:56;;;;;;;31.97;19.90;;;4.60;94.60;;;;;;5051976;28;20177;-74
2021/01/17 08:08:34;;;;;;;129.43;70.25;;;4.60;95.10;;;;;;5049965;28;20254;-74
2021/01/17 08:11:04;;;;;;;35.55;21.92;;;4.70;95.50;;;;;;5051722;28;20672;-74
2021/01/17 08:13:33;;;;;;;29.65;18.95;;;4.80;95.60;;;;;;5051594;28;20625;-75
2021/01/17 08:16:12;;;;;;;30.90;17.58;;;4.80;95.30;;;;;;5051290;28;20174;-75
2021/01/17 08:18:39;;;;;;;28.30;17.65;;;4.80;95.40;;;;;;5070428;28;20900;-76
2021/01/17 08:21:17;;;;;;;28.77;17.17;;;4.90;95.60;;;;;;5050799;28;20170;-76
2021/01/17 08:24:12;;;;;;;28.80;18.52;;;4.90;95.50;;;;;;5051352;28;20186;-75
2021/01/17 08:27:00;;;;;;;28.50;16.95;;;4.90;95.40;;;;;;5057361;28;20239;-75
2021/01/17 08:29:27;;;;;;;33.20;18.13;;;4.90;95.30;;;;;;5071086;28;20173;-75
2021/01/17 08:31:52;;;;;;;28.15;17.13;;;5.00;95.40;;;;;;5065435;28;20324;-76
2021/01/17 08:34:26;;;;;;;27.50;17.10;;;5.00;95.40;;;;;;5032956;28;20204;-76
2021/01/17 08:36:54;;;;;;;27.98;17.50;;;5.00;95.30;;;;;;5045793;28;20420;-75
2021/01/17 08:39:41;;;;;;;29.45;17.20;;;5.10;95.40;;;;;;5049134;28;20518;-77
2021/01/17 08:42:26;;;;;;;25.85;16.48;;;5.10;95.50;;;;;;5032728;28;20281;-78
2021/01/17 08:44:51;;;;;;;30.45;18.27;;;5.10;95.60;;;;;;5050189;28;20629;-77
2021/01/17 08:47:21;;;;;;;30.60;17.67;;;5.10;95.50;;;;;;5079427;28;20272;-76
2021/01/17 08:49:48;;;;;;;25.77;17.08;;;5.10;95.40;;;;;;5051692;28;20494;-75
2021/01/17 08:52:22;;;;;;;30.13;17.73;;;5.10;95.50;;;;;;5053579;28;20514;-78
2021/01/17 08:54:49;;;;;;;27.85;19.15;;;5.10;95.70;;;;;;5053731;28;20181;-77
2021/01/17 08:57:40;;;;;;;27.63;17.67;;;5.70;98.10;;;;;;5086948;28;20174;-78
2021/01/17 09:00:11;;;;;;;29.42;19.05;;;6.70;98.40;;;;;;5087341;28;20261;-80
2021/01/17 09:02:38;;;;;;;30.52;19.13;;;7.50;96.90;;;;;;5037822;28;20585;-78
2021/01/17 09:05:15;;;;;;;23.90;18.00;;;8.20;95.50;;;;;;5054594;28;20246;-76
2021/01/17 09:07:42;;;;;;;29.03;18.80;;;8.80;94.00;;;;;;5087666;28;20444;-76
2021/01/17 09:10:12;;;;;;;28.53;20.03;;;9.40;92.60;;;;;;5053418;28;20502;-79
2021/01/17 09:12:38;;;;;;;27.80;17.90;;;10.00;92.30;;;;;;5087297;28;20386;-76
2021/01/17 09:15:31;;;;;;;27.17;18.70;;;10.40;90.40;;;;;;5055050;28;20466;-76
2021/01/17 09:17:59;;;;;;;28.60;18.07;;;10.80;86.90;;;;;;5050724;28;20483;-77
2021/01/17 09:20:26;;;;;;;28.77;19.13;;;11.10;83.80;;;;;;5052189;28;20836;-78
2021/01/17 09:22:54;;;;;;;148.60;90.43;;;11.40;81.40;;;;;;5054620;28;20812;-76
2021/01/17 09:25:22;;;;;;;26.73;20.00;;;11.60;79.20;;;;;;5052413;28;20422;-77
2021/01/17 09:27:50;;;;;;;26.63;19.57;;;11.70;76.50;;;;;;5053193;28;20468;-77
2021/01/17 09:30:16;;;;;;;27.90;19.27;;;11.90;76.60;;;;;;5053163;28;20429;-79
2021/01/17 09:32:43;;;;;;;25.77;18.43;;;12.00;76.50;;;;;;5070252;28;20430;-77
2021/01/17 09:35:09;;;;;;;24.63;18.67;;;12.10;77.00;;;;;;5034105;28;20417;-80
2021/01/17 09:37:35;;;;;;;26.73;18.60;;;12.30;75.50;;;;;;5043899;28;20918;-77
2021/01/17 09:40:03;;;;;;;24.70;18.80;;;12.40;74.10;;;;;;5053798;28;20420;-77
2021/01/17 09:42:29;;;;;;;26.30;18.50;;;12.50;73.30;;;;;;5051740;28;20437;-76
2021/01/17 09:44:57;;;;;;;24.13;18.03;;;12.60;72.80;;;;;;5070711;28;20460;-78
2021/01/17 09:47:24;;;;;;;25.53;18.50;;;12.60;71.10;;;;;;5058204;28;20778;-77
2021/01/17 09:49:51;;;;;;;24.10;17.97;;;12.50;69.80;;;;;;5061546;28;20938;-77
2021/01/17 09:52:24;;;;;;;23.67;17.37;;;12.10;69.50;;;;;;5060845;28;20420;-78
2021/01/17 09:54:53;;;;;;;24.40;17.83;;;12.20;71.10;;;;;;5053652;28;20505;-77
2021/01/17 09:57:20;;;;;;;325.23;201.17;;;12.30;71.30;;;;;;5053292;28;20453;-76
2021/01/17 09:59:48;;;;;;;237.13;131.70;;;12.50;71.40;;;;;;5053989;28;20491;-77
2021/01/17 10:02:17;;;;;;;99.63;62.93;;;12.60;71.30;;;;;;5051966;28;20963;-77
2021/01/17 10:04:43;;;;;;;28.00;21.47;;;12.70;71.20;;;;;;5053724;28;20485;-77
2021/01/17 10:07:17;;;;;;;25.80;19.10;;;12.80;70.10;;;;;;5057318;28;20807;-79
2021/01/17 10:09:44;;;;;;;24.50;18.63;;;12.90;69.50;;;;;;5053977;28;20180;-77
2021/01/17 10:12:11;;;;;;;25.80;18.70;;;12.90;68.10;;;;;;5052705;28;20476;-80
2021/01/17 10:14:37;;;;;;;24.83;19.27;;;13.00;68.50;;;;;;5052496;28;20422;-77
2021/01/17 10:17:05;;;;;;;22.87;19.07;;;13.00;68.80;;;;;;5052172;28;20479;-77
2021/01/17 10:19:38;;;;;;;22.17;16.70;;;13.10;67.40;;;;;;5051142;28;20517;-77
2021/01/17 10:22:09;;;;;;;25.47;18.00;;;13.10;67.70;;;;;;5053210;28;20491;-77
2021/01/17 10:24:34;;;;;;;25.20;18.63;;;13.10;67.80;;;;;;5054186;28;20428;-77
2021/01/17 10:27:02;;;;;;;25.10;18.57;;;13.10;68.10;;;;;;5051923;28;20428;-77
2021/01/17 10:29:39;;;;;;;22.93;17.90;;;13.20;67.60;;;;;;5050847;28;20230;-77
2021/01/17 10:32:06;;;;;;;26.93;18.97;;;13.20;66.80;;;;;;5085720;28;20426;-77
2021/01/17 10:34:35;;;;;;;632.80;383.73;;;13.20;67.40;;;;;;5052878;28;20418;-77
2021/01/17 10:37:04;;;;;;;635.90;408.23;;;13.30;67.10;;;;;;5055167;28;20444;-77
2021/01/17 10:39:31;;;;;;;42.33;28.60;;;13.30;67.60;;;;;;5062038;28;20422;-78
2021/01/17 10:42:19;;;;;;;23.80;17.87;;;13.30;67.40;;;;;;5059689;28;20461;-77
2021/01/17 10:45:01;;;;;;;21.90;16.90;;;13.30;66.20;;;;;;5058139;28;20962;-77
2021/01/17 10:47:32;;;;;;;22.80;17.70;;;13.40;66.50;;;;;;5058831;28;20458;-77
2021/01/17 10:50:03;;;;;;;21.87;17.10;;;13.20;65.00;;;;;;5061400;28;20420;-77
2021/01/17 10:52:32;;;;;;;20.17;17.77;;;13.10;66.60;;;;;;5057486;28;20432;-77
2021/01/17 10:55:00;;;;;;;22.83;17.73;;;13.10;66.70;;;;;;5060237;28;20449;-77
2021/01/17 10:57:27;;;;;;;21.70;16.23;;;13.20;67.00;;;;;;5056802;28;20426;-77
2021/01/17 10:59:56;;;;;;;24.00;17.50;;;13.30;66.20;;;;;;5057928;28;20411;-77
2021/01/17 11:02:25;;;;;;;24.20;17.17;;;13.40;66.80;;;;;;5050187;28;20463;-77
2021/01/17 11:04:51;;;;;;;19.40;15.83;;;13.50;66.50;;;;;;5056743;28;20424;-77
2021/01/17 11:07:20;;;;;;;20.73;16.73;;;13.40;65.20;;;;;;5058980;28;20467;-77
2021/01/17 11:09:46;;;;;;;20.53;15.73;;;13.40;66.00;;;;;;5061573;28;20411;-77
2021/01/17 11:12:12;;;;;;;19.73;16.20;;;13.50;65.90;;;;;;5053265;28;20782;-80
2021/01/17 11:14:38;;;;;;;18.63;15.10;;;13.20;65.80;;;;;;5053544;28;20416;-76
2021/01/17 11:17:04;;;;;;;21.10;16.17;;;13.30;65.90;;;;;;5052067;28;20824;-78
2021/01/17 11:19:34;;;;;;;18.47;14.60;;;13.40;66.20;;;;;;5051694;28;20227;-77
2021/01/17 11:22:00;;;;;;;15.03;13.40;;;13.50;66.10;;;;;;5051210;28;20463;-77
2021/01/17 11:24:39;;;;;;;16.20;12.97;;;13.50;66.30;;;;;;5058032;28;20424;-77
2021/01/17 11:27:07;;;;;;;15.70;13.00;;;13.60;65.90;;;;;;5052909;28;20432;-77
2021/01/17 11:29:33;;;;;;;18.93;15.30;;;13.70;66.50;;;;;;5059056;28;20416;-77
2021/01/17 11:31:59;;;;;;;19.10;15.63;;;13.70;66.00;;;;;;5060298;28;20417;-77
2021/01/17 11:34:25;;;;;;;19.67;16.47;;;13.70;65.60;;;;;;5059439;28;20169;-76
2021/01/17 11:36:57;;;;;;;21.37;15.60;;;13.70;66.00;;;;;;5060867;28;20575;-78
2021/01/17 11:39:22;;;;;;;320.30;184.63;;;13.80;65.80;;;;;;5042787;28;20209;-78
2021/01/17 11:41:49;;;;;;;130.13;84.10;;;13.80;65.90;;;;;;5059057;28;20549;-77
2021/01/17 11:44:21;;;;;;;33.27;24.70;;;13.80;65.80;;;;;;5053659;28;20251;-79
2021/01/17 11:46:48;;;;;;;19.60;15.23;;;13.90;66.00;;;;;;5051207;28;20413;-77
2021/01/17 11:49:14;;;;;;;20.53;16.17;;;13.90;65.90;;;;;;5051308;28;20507;-79
2021/01/17 11:51:41;;;;;;;20.67;15.90;;;13.90;65.60;;;;;;5052761;28;20468;-78
2021/01/17 11:54:19;;;;;;;28.03;19.03;;;13.90;65.90;;;;;;5088581;28;20421;-77
2021/01/17 11:56:46;;;;;;;23.97;15.73;;;13.90;65.40;;;;;;5037003;28;20515;-77
2021/01/17 11:59:28;;;;;;;17.90;14.87;;;13.90;65.20;;;;;;5051342;28;20558;-78
2021/01/17 12:01:54;;;;;;;16.10;14.20;;;13.90;65.50;;;;;;5051631;28;20448;-76
2021/01/17 12:04:26;;;;;;;18.47;15.03;;;13.90;65.30;;;;;;5050830;28;20424;-76
2021/01/17 12:07:12;;;;;;;16.90;14.20;;;13.90;65.70;;;;;;5048234;28;20774;-80
2021/01/17 12:09:38;;;;;;;17.67;14.60;;;13.90;66.30;;;;;;5049469;28;20423;-77
2021/01/17 12:12:16;;;;;;;16.57;14.63;;;13.90;66.20;;;;;;5050787;28;20432;-78
2021/01/17 12:14:43;;;;;;;18.80;15.40;;;14.00;66.00;;;;;;5052537;28;20419;-77
2021/01/17 12:17:10;;;;;;;19.70;15.37;;;14.00;66.80;;;;;;5038647;28;20938;-78
2021/01/17 12:19:36;;;;;;;17.57;15.40;;;14.00;66.50;;;;;;5050610;28;20613;-77
2021/01/17 12:22:04;;;;;;;15.23;13.13;;;14.00;66.70;;;;;;5050021;28;20588;-79
2021/01/17 12:24:30;;;;;;;17.20;13.60;;;14.00;65.90;;;;;;5049392;28;20420;-78
2021/01/17 12:26:56;;;;;;;18.40;13.93;;;14.00;66.50;;;;;;5055121;28;20924;-78
2021/01/17 12:29:23;;;;;;;19.47;15.00;;;13.90;66.60;;;;;;5054298;28;20470;-78
2021/01/17 12:31:51;;;;;;;18.27;14.20;;;13.90;66.50;;;;;;5055577;28;20825;-77
2021/01/17 12:34:18;;;;;;;19.20;15.37;;;13.90;66.60;;;;;;5055254;28;20477;-80
2021/01/17 12:36:45;;;;;;;18.70;14.77;;;13.90;66.40;;;;;;5055617;28;20423;-81
2021/01/17 12:39:13;;;;;;;1203.87;660.40;;;13.90;66.50;;;;;;5054893;28;20418;-82
2021/01/17 12:41:43;;;;;;;411.47;260.70;;;13.90;66.20;;;;;;5053540;28;20427;-81
2021/01/17 12:44:10;;;;;;;24.73;19.77;;;14.00;66.80;;;;;;5054099;28;20452;-78
2021/01/17 12:46:36;;;;;;;16.00;14.20;;;14.00;66.50;;;;;;5054238;28;21058;-75